createdAt,value
2019-05-17T00:01:07.545Z,6.83
2019-05-17T00:03:36.545Z,6.60
2019-05-17T00:06:06.727Z,6.23
2019-05-17T00:08:34.933Z,6.97
2019-05-17T00:11:02.373Z,6.73
2019-05-17T00:13:31.209Z,7.03
2019-05-17T00:16:00.031Z,7.27
2019-05-17T00:18:29.607Z,7.10
2019-05-17T00:20:58.446Z,7.70
2019-05-17T00:23:27.281Z,7.57
2019-05-17T00:25:56.469Z,8.57
2019-05-17T00:28:26.954Z,8.10
2019-05-17T00:30:53.807Z,7.90
2019-05-17T00:33:22.642Z,9.17
2019-05-17T00:35:52.056Z,8.47
2019-05-17T00:38:21.652Z,10.40
2019-05-17T00:40:50.512Z,10.33
2019-05-17T00:43:19.414Z,10.33
2019-05-17T00:45:48.305Z,9.60
2019-05-17T00:48:17.340Z,9.27
2019-05-17T00:50:52.407Z,8.30
2019-05-17T00:53:16.388Z,9.27
2019-05-17T00:55:43.605Z,8.60
2019-05-17T00:58:12.445Z,9.23
2019-05-17T01:00:41.275Z,9.70
2019-05-17T01:03:10.840Z,10.30
2019-05-17T01:05:39.678Z,9.63
2019-05-17T01:08:08.522Z,12.00
2019-05-17T01:10:37.368Z,10.10
2019-05-17T01:13:06.849Z,10.83
2019-05-17T01:15:36.972Z,9.83
2019-05-17T01:18:03.906Z,10.37
2019-05-17T01:20:33.478Z,10.97
2019-05-17T01:23:02.313Z,11.00
2019-05-17T01:25:31.143Z,10.03
2019-05-17T01:27:59.982Z,12.73
2019-05-17T01:30:29.560Z,10.80
2019-05-17T01:32:58.395Z,11.73
2019-05-17T01:35:27.232Z,10.60
2019-05-17T01:37:56.492Z,10.53
2019-05-17T01:40:26.466Z,11.43
2019-05-17T01:42:54.483Z,10.63
2019-05-17T01:45:23.316Z,11.43
2019-05-17T01:47:52.142Z,11.93
2019-05-17T01:50:21.732Z,11.43
2019-05-17T01:52:50.578Z,11.90
2019-05-17T01:55:19.414Z,12.10
2019-05-17T01:57:48.996Z,12.67
2019-05-17T02:00:17.893Z,12.50
2019-05-17T02:02:47.144Z,11.83
2019-05-17T02:05:17.325Z,11.80
2019-05-17T02:07:46.486Z,14.00
2019-05-17T02:10:13.227Z,13.43
2019-05-17T02:12:42.074Z,12.30
2019-05-17T02:15:10.921Z,13.00
2019-05-17T02:17:39.772Z,13.87
2019-05-17T02:20:08.650Z,13.77
2019-05-17T02:22:37.469Z,13.57
2019-05-17T02:25:07.330Z,13.00
2019-05-17T02:27:41.042Z,13.27
2019-05-17T02:30:06.764Z,15.23
2019-05-17T02:32:36.323Z,12.60
2019-05-17T02:35:05.179Z,12.70
2019-05-17T02:37:34.035Z,13.85
2019-05-17T02:40:07.997Z,11.33
2019-05-17T02:42:33.337Z,13.50
2019-05-17T02:45:03.071Z,13.80
2019-05-17T02:47:29.456Z,13.40
2019-05-17T02:49:58.295Z,11.67
2019-05-17T02:52:27.146Z,12.17
2019-05-17T02:54:56.001Z,11.77
2019-05-17T02:57:24.834Z,12.33
2019-05-17T02:59:53.685Z,12.50
2019-05-17T03:02:27.479Z,13.98
2019-05-17T03:04:52.708Z,12.53
2019-05-17T03:07:23.190Z,13.10
2019-05-17T03:09:49.796Z,12.57
2019-05-17T03:12:18.641Z,11.90
2019-05-17T03:14:47.480Z,13.27
2019-05-17T03:17:16.339Z,12.90
2019-05-17T03:19:45.170Z,14.38
2019-05-17T03:22:14.747Z,13.50
2019-05-17T03:24:44.078Z,12.77
2019-05-17T03:27:13.458Z,12.67
2019-05-17T03:29:42.522Z,12.23
2019-05-17T03:32:16.675Z,14.32
2019-05-17T03:34:38.969Z,12.63
2019-05-17T03:37:08.018Z,13.63
2019-05-17T03:39:36.694Z,13.67
2019-05-17T03:42:05.544Z,12.73
2019-05-17T03:44:34.380Z,12.67
2019-05-17T03:47:03.232Z,12.73
2019-05-17T03:49:33.324Z,13.37
2019-05-17T03:52:02.750Z,15.73
2019-05-17T03:54:32.407Z,14.57
2019-05-17T03:57:02.656Z,12.93
2019-05-17T03:59:28.242Z,12.90
2019-05-17T04:01:57.109Z,13.97
2019-05-17T04:04:25.983Z,14.10
2019-05-17T04:06:54.826Z,12.80
2019-05-17T04:09:23.666Z,14.17
2019-05-17T04:11:53.613Z,14.37
2019-05-17T04:14:22.511Z,14.70
2019-05-17T04:16:53.367Z,14.17
2019-05-17T04:19:19.064Z,13.33
2019-05-17T04:21:47.895Z,14.50
2019-05-17T04:24:16.772Z,14.07
2019-05-17T04:26:45.626Z,16.13
2019-05-17T04:29:14.468Z,18.10
2019-05-17T04:31:44.066Z,15.00
2019-05-17T04:34:13.596Z,15.17
2019-05-17T04:36:43.152Z,14.37
2019-05-17T04:39:13.363Z,16.07
2019-05-17T04:41:46.962Z,15.47
2019-05-17T04:44:09.045Z,15.83
2019-05-17T04:46:37.895Z,15.43
2019-05-17T04:49:06.734Z,14.77
2019-05-17T04:51:35.583Z,14.80
2019-05-17T04:54:04.429Z,15.03
2019-05-17T04:56:33.671Z,14.40
2019-05-17T04:59:03.881Z,15.80
2019-05-17T05:01:33.224Z,16.00
2019-05-17T05:04:03.593Z,16.23
2019-05-17T05:06:32.877Z,19.50
2019-05-17T05:09:02.318Z,15.23
2019-05-17T05:11:28.469Z,14.80
2019-05-17T05:13:57.299Z,16.73
2019-05-17T05:16:26.124Z,15.17
2019-05-17T05:18:54.959Z,16.13
2019-05-17T05:21:23.789Z,15.70
2019-05-17T05:23:52.622Z,16.30
2019-05-17T05:26:22.359Z,17.97
2019-05-17T05:28:52.854Z,15.47
2019-05-17T05:31:22.635Z,18.62
2019-05-17T05:33:52.141Z,16.17
2019-05-17T05:36:19.145Z,17.95
2019-05-17T05:38:48.002Z,16.85
2019-05-17T05:41:16.850Z,15.90
2019-05-17T05:43:45.725Z,15.50
2019-05-17T05:46:14.564Z,15.10
2019-05-17T05:48:43.413Z,16.57
2019-05-17T05:51:13.755Z,17.25
2019-05-17T05:53:41.903Z,15.20
2019-05-17T05:56:13.055Z,16.63
2019-05-17T05:58:38.860Z,17.83
2019-05-17T06:01:07.696Z,16.30
2019-05-17T06:03:37.301Z,13.90
2019-05-17T06:06:06.731Z,15.63
2019-05-17T06:08:35.568Z,13.30
2019-05-17T06:11:04.398Z,14.80
2019-05-17T06:13:33.987Z,12.10
2019-05-17T06:16:02.986Z,12.23
2019-05-17T06:18:31.917Z,12.93
2019-05-17T06:21:02.722Z,16.37
2019-05-17T06:23:31.495Z,12.13
2019-05-17T06:25:58.270Z,12.00
2019-05-17T06:28:27.186Z,12.00
2019-05-17T06:30:56.275Z,11.83
2019-05-17T06:33:30.638Z,14.47
2019-05-17T06:35:53.990Z,14.27
2019-05-17T06:38:22.863Z,13.07
2019-05-17T06:40:52.310Z,12.90
2019-05-17T06:43:21.521Z,12.30
2019-05-17T06:45:52.231Z,13.43
2019-05-17T06:48:19.033Z,14.30
2019-05-17T06:50:47.875Z,13.03
2019-05-17T06:53:16.733Z,15.00
2019-05-17T06:55:45.588Z,15.30
2019-05-17T06:58:14.424Z,14.60
2019-05-17T07:00:44.041Z,15.87
2019-05-17T07:03:13.646Z,14.13
2019-05-17T07:05:44.030Z,13.53
2019-05-17T07:08:12.886Z,15.43
2019-05-17T07:10:41.731Z,15.90
2019-05-17T07:13:10.945Z,14.67
2019-05-17T07:15:47.405Z,15.15
2019-05-17T07:18:10.366Z,15.53
2019-05-17T07:20:39.533Z,15.73
2019-05-17T07:23:07.513Z,16.67
2019-05-17T07:25:36.850Z,17.30
2019-05-17T07:28:05.704Z,17.12
2019-05-17T07:30:35.527Z,16.00
2019-05-17T07:33:03.884Z,15.47
2019-05-17T07:35:32.689Z,18.57
2019-05-17T07:38:02.309Z,17.13
2019-05-17T07:40:31.133Z,16.17
2019-05-17T07:43:09.807Z,15.27
2019-05-17T07:45:29.518Z,14.80
2019-05-17T07:48:00.009Z,16.17
2019-05-17T07:50:26.522Z,16.17
2019-05-17T07:52:55.350Z,15.37
2019-05-17T07:55:24.201Z,14.90
2019-05-17T07:57:53.061Z,13.87
2019-05-17T08:00:21.918Z,15.20
2019-05-17T08:02:50.755Z,14.73
2019-05-17T08:05:25.619Z,14.33
2019-05-17T08:07:55.212Z,13.00
2019-05-17T08:10:24.402Z,13.53
2019-05-17T08:12:53.235Z,14.27
2019-05-17T08:15:22.190Z,13.20
2019-05-17T08:17:51.066Z,14.43
2019-05-17T08:20:20.382Z,13.63
2019-05-17T08:22:50.219Z,12.43
2019-05-17T08:25:19.891Z,14.47
2019-05-17T08:27:46.443Z,12.50
2019-05-17T08:30:15.294Z,11.57
2019-05-17T08:32:44.124Z,12.00
2019-05-17T08:35:12.981Z,11.10
2019-05-17T08:37:42.683Z,15.23
2019-05-17T08:40:14.908Z,12.10
2019-05-17T08:42:40.779Z,11.27
2019-05-17T08:45:09.660Z,10.93
2019-05-17T08:47:39.745Z,10.43
2019-05-17T08:50:06.858Z,10.30
2019-05-17T08:52:36.154Z,11.13
2019-05-17T08:55:05.000Z,8.93
2019-05-17T08:57:33.831Z,8.83
2019-05-17T09:00:02.679Z,8.97
2019-05-17T09:02:31.514Z,8.83
2019-05-17T09:05:00.679Z,7.63
2019-05-17T09:07:29.626Z,7.90
2019-05-17T09:09:58.060Z,7.70
2019-05-17T09:12:26.891Z,6.40
2019-05-17T09:14:56.480Z,7.00
2019-05-17T09:17:25.331Z,6.80
2019-05-17T09:19:54.494Z,8.63
2019-05-17T09:22:23.753Z,6.60
2019-05-17T09:24:52.851Z,8.83
2019-05-17T09:27:21.674Z,7.43
2019-05-17T09:29:50.567Z,7.80
2019-05-17T09:32:20.091Z,8.70
2019-05-17T09:34:49.818Z,8.53
2019-05-17T09:37:19.872Z,7.27
2019-05-17T09:39:46.725Z,7.40
2019-05-17T09:42:15.546Z,7.60
2019-05-17T09:44:44.385Z,7.33
2019-05-17T09:47:13.267Z,6.77
2019-05-17T09:49:42.070Z,8.63
2019-05-17T09:52:10.902Z,6.23
2019-05-17T09:54:45.100Z,10.93
2019-05-17T09:57:09.917Z,6.43
2019-05-17T09:59:40.330Z,6.30
2019-05-17T10:02:09.404Z,6.57
2019-05-17T10:04:35.897Z,6.10
2019-05-17T10:07:04.736Z,7.90
2019-05-17T10:09:33.556Z,5.00
2019-05-17T10:12:02.919Z,4.67
2019-05-17T10:14:31.629Z,4.43
2019-05-17T10:17:00.486Z,4.73
2019-05-17T10:19:30.097Z,4.97
2019-05-17T10:21:59.841Z,4.07
2019-05-17T10:24:37.977Z,4.77
2019-05-17T10:26:59.403Z,4.47
2019-05-17T10:29:26.595Z,3.80
2019-05-17T10:31:56.169Z,5.70
2019-05-17T10:34:24.994Z,3.93
2019-05-17T10:36:53.875Z,4.80
2019-05-17T10:39:22.710Z,4.23
2019-05-17T10:41:51.549Z,4.73
2019-05-17T10:44:21.149Z,5.30
2019-05-17T10:46:49.982Z,4.70
2019-05-17T10:49:20.235Z,7.40
2019-05-17T10:51:49.380Z,5.63
2019-05-17T10:54:20.432Z,7.20
2019-05-17T10:56:46.868Z,5.75
2019-05-17T10:59:15.878Z,6.50
2019-05-17T11:01:44.719Z,7.37
2019-05-17T11:04:14.334Z,4.53
2019-05-17T11:06:43.182Z,6.63
2019-05-17T11:09:12.029Z,5.25
2019-05-17T11:11:40.899Z,5.03
2019-05-17T11:14:09.744Z,4.70
2019-05-17T11:16:38.624Z,7.37
2019-05-17T11:19:08.858Z,5.30
2019-05-17T11:21:37.030Z,4.83
2019-05-17T11:24:05.937Z,4.40
2019-05-17T11:26:34.735Z,6.30
2019-05-17T11:29:03.576Z,6.40
2019-05-17T11:31:33.424Z,6.60
2019-05-17T11:34:02.287Z,5.83
2019-05-17T11:36:31.116Z,6.63
2019-05-17T11:38:59.997Z,7.23
2019-05-17T11:41:28.793Z,4.53
2019-05-17T11:43:57.622Z,5.30
2019-05-17T11:46:35.678Z,5.63
2019-05-17T11:48:55.301Z,5.00
2019-05-17T11:51:26.947Z,5.50
2019-05-17T11:53:52.963Z,5.30
2019-05-17T11:56:22.645Z,4.40
2019-05-17T11:58:51.469Z,4.63
2019-05-17T12:01:21.103Z,5.07
2019-05-17T12:03:49.987Z,5.50
2019-05-17T12:06:18.827Z,5.73
2019-05-17T12:08:47.669Z,6.90
2019-05-17T12:11:16.522Z,5.32
2019-05-17T12:13:45.363Z,5.75
2019-05-17T12:16:14.204Z,7.05
2019-05-17T12:18:43.061Z,5.85
2019-05-17T12:21:15.180Z,5.20
2019-05-17T12:23:44.033Z,5.82
2019-05-17T12:26:12.876Z,6.12
2019-05-17T12:28:41.701Z,6.55
2019-05-17T12:31:10.541Z,6.80
2019-05-17T12:33:39.480Z,5.12
2019-05-17T12:36:08.337Z,6.18
2019-05-17T12:38:37.201Z,7.12
2019-05-17T12:41:06.035Z,5.00
2019-05-17T12:43:34.891Z,5.62
2019-05-17T12:46:03.764Z,5.68
2019-05-17T12:48:32.611Z,6.07
2019-05-17T12:51:01.497Z,5.10
2019-05-17T12:53:30.338Z,5.75
2019-05-17T12:55:59.187Z,5.32
2019-05-17T12:58:28.034Z,5.60
2019-05-17T13:00:56.866Z,5.45
2019-05-17T13:03:25.708Z,6.57
2019-05-17T13:05:55.421Z,5.82
2019-05-17T13:08:24.250Z,5.10
2019-05-17T13:10:53.717Z,4.22
2019-05-17T13:13:22.559Z,4.87
2019-05-17T13:15:51.395Z,5.32
2019-05-17T13:18:20.247Z,5.80
2019-05-17T13:20:49.091Z,4.20
2019-05-17T13:23:17.935Z,4.25
2019-05-17T13:25:47.527Z,4.15
2019-05-17T13:28:17.107Z,4.85
2019-05-17T13:30:45.947Z,4.12
2019-05-17T13:33:14.790Z,4.00
2019-05-17T13:35:43.626Z,5.43
2019-05-17T13:38:13.433Z,4.82
2019-05-17T13:40:42.226Z,6.22
2019-05-17T13:43:11.081Z,4.70
2019-05-17T13:45:39.921Z,4.50
2019-05-17T13:48:08.767Z,4.80
2019-05-17T13:50:38.342Z,4.20
2019-05-17T13:53:07.192Z,5.78
2019-05-17T13:55:36.026Z,5.85
2019-05-17T13:58:04.853Z,4.82
2019-05-17T14:00:33.724Z,4.45
2019-05-17T14:03:02.561Z,4.90
2019-05-17T14:05:31.401Z,5.50
2019-05-17T14:08:00.283Z,4.50
2019-05-17T14:10:32.123Z,5.07
2019-05-17T14:12:58.682Z,4.82
2019-05-17T14:15:28.350Z,4.68
2019-05-17T14:17:57.185Z,4.25
2019-05-17T14:20:26.030Z,4.82
2019-05-17T14:22:54.861Z,4.53
2019-05-17T14:25:24.299Z,4.00
2019-05-17T14:27:53.214Z,4.50
2019-05-17T14:30:21.972Z,4.43
2019-05-17T14:32:50.836Z,3.65
2019-05-17T14:35:19.673Z,3.78
2019-05-17T14:37:48.509Z,4.07
2019-05-17T14:40:17.356Z,4.55
2019-05-17T14:42:46.208Z,4.37
2019-05-17T14:45:15.799Z,5.05
2019-05-17T14:47:44.633Z,4.07
2019-05-17T14:50:13.476Z,4.57
2019-05-17T14:52:42.307Z,4.85
2019-05-17T14:55:11.158Z,4.87
2019-05-17T14:57:42.955Z,3.15
2019-05-17T15:00:09.618Z,4.97
2019-05-17T15:02:38.407Z,4.47
2019-05-17T15:05:07.238Z,4.07
2019-05-17T15:07:36.119Z,5.60
2019-05-17T15:10:04.959Z,4.40
2019-05-17T15:12:33.768Z,3.50
2019-05-17T15:15:02.594Z,3.35
2019-05-17T15:17:34.912Z,3.62
2019-05-17T15:20:00.994Z,4.77
2019-05-17T15:22:30.570Z,5.28
2019-05-17T15:24:59.407Z,3.20
2019-05-17T15:27:28.261Z,4.20
2019-05-17T15:29:57.109Z,3.58
2019-05-17T15:32:25.982Z,4.47
2019-05-17T15:34:54.819Z,4.55
2019-05-17T15:37:23.667Z,4.85
2019-05-17T15:39:53.249Z,3.70
2019-05-17T15:42:22.115Z,3.70
2019-05-17T15:44:50.957Z,5.75
2019-05-17T15:47:19.803Z,3.90
2019-05-17T15:49:49.407Z,4.45
2019-05-17T15:52:18.250Z,3.70
2019-05-17T15:54:48.715Z,6.55
2019-05-17T15:57:15.919Z,4.93
2019-05-17T15:59:44.759Z,3.62
2019-05-17T16:02:13.615Z,3.78
2019-05-17T16:04:42.440Z,3.53
2019-05-17T16:07:12.036Z,5.87
2019-05-17T16:09:40.900Z,4.30
2019-05-17T16:12:09.722Z,4.07
2019-05-17T16:14:39.325Z,4.03
2019-05-17T16:17:08.193Z,3.87
2019-05-17T16:19:37.020Z,3.78
2019-05-17T16:22:06.592Z,3.92
2019-05-17T16:24:35.449Z,3.47
2019-05-17T16:27:04.295Z,5.80
2019-05-17T16:29:33.871Z,3.53
2019-05-17T16:32:02.718Z,4.93
2019-05-17T16:34:31.564Z,3.72
2019-05-17T16:37:00.457Z,3.60
2019-05-17T16:39:29.903Z,3.45
2019-05-17T16:41:58.799Z,3.53
2019-05-17T16:44:27.621Z,3.17
2019-05-17T16:46:56.447Z,2.90
2019-05-17T16:49:28.494Z,4.62
2019-05-17T16:51:54.858Z,5.07
2019-05-17T16:54:24.114Z,3.12
2019-05-17T16:56:52.972Z,3.60
2019-05-17T16:59:21.801Z,3.78
2019-05-17T17:01:50.661Z,3.95
2019-05-17T17:04:19.480Z,3.97
2019-05-17T17:06:48.325Z,3.97
2019-05-17T17:09:17.159Z,4.97
2019-05-17T17:11:46.016Z,6.10
2019-05-17T17:14:14.850Z,4.80
2019-05-17T17:16:44.421Z,5.05
2019-05-17T17:19:13.276Z,3.60
2019-05-17T17:21:42.117Z,4.10
2019-05-17T17:24:11.010Z,4.25
2019-05-17T17:26:40.575Z,3.20
2019-05-17T17:29:09.417Z,4.12
2019-05-17T17:31:39.017Z,3.65
2019-05-17T17:34:07.869Z,6.93
2019-05-17T17:36:36.698Z,5.72
2019-05-17T17:39:06.301Z,4.22
2019-05-17T17:41:35.790Z,5.30
2019-05-17T17:44:04.642Z,4.73
2019-05-17T17:46:33.481Z,3.47
2019-05-17T17:49:03.064Z,4.50
2019-05-17T17:51:31.928Z,3.50
2019-05-17T17:54:00.811Z,4.75
2019-05-17T17:56:30.399Z,3.30
2019-05-17T17:58:59.201Z,3.50
2019-05-17T18:01:28.045Z,3.25
2019-05-17T18:03:56.879Z,2.92
2019-05-17T18:06:25.738Z,3.50
2019-05-17T18:08:54.661Z,3.10
2019-05-17T18:11:23.409Z,2.65
2019-05-17T18:13:52.291Z,3.37
2019-05-17T18:16:21.153Z,4.70
2019-05-17T18:18:49.985Z,2.87
2019-05-17T18:21:18.845Z,2.60
2019-05-17T18:23:47.665Z,3.25
2019-05-17T18:26:17.254Z,3.50
2019-05-17T18:28:46.107Z,3.70
2019-05-17T18:31:14.965Z,3.05
2019-05-17T18:33:43.806Z,3.65
2019-05-17T18:36:12.630Z,4.53
2019-05-17T18:38:42.220Z,4.15
2019-05-17T18:41:11.065Z,4.72
2019-05-17T18:43:39.923Z,3.85
2019-05-17T18:46:09.511Z,2.30
2019-05-17T18:48:38.355Z,3.12
2019-05-17T18:51:07.207Z,2.85
2019-05-17T18:53:36.811Z,2.35
2019-05-17T18:56:06.409Z,2.28
2019-05-17T18:58:39.211Z,3.83
2019-05-17T19:01:04.939Z,4.80
2019-05-17T19:03:33.773Z,2.42
2019-05-17T19:06:02.610Z,2.40
2019-05-17T19:08:31.459Z,2.28
2019-05-17T19:11:00.334Z,2.45
2019-05-17T19:13:29.175Z,2.40
2019-05-17T19:15:58.035Z,2.28
2019-05-17T19:18:27.618Z,5.70
2019-05-17T19:20:56.477Z,2.83
2019-05-17T19:23:26.006Z,3.40
2019-05-17T19:25:54.158Z,3.20
2019-05-17T19:28:23.024Z,2.53
2019-05-17T19:30:51.890Z,7.12
2019-05-17T19:33:20.731Z,3.62
2019-05-17T19:35:49.576Z,2.42
2019-05-17T19:38:19.224Z,2.25
2019-05-17T19:40:48.792Z,2.60
2019-05-17T19:43:17.670Z,3.58
2019-05-17T19:45:46.482Z,2.30
2019-05-17T19:48:15.353Z,3.15
2019-05-17T19:50:44.209Z,2.58
2019-05-17T19:53:13.039Z,2.35
2019-05-17T19:55:42.635Z,4.05
2019-05-17T19:58:12.242Z,2.33
2019-05-17T20:00:41.080Z,2.60
2019-05-17T20:03:09.914Z,2.78
2019-05-17T20:05:38.777Z,2.72
2019-05-17T20:08:07.618Z,2.95
2019-05-17T20:10:36.459Z,2.75
2019-05-17T20:13:05.344Z,2.47
2019-05-17T20:15:35.039Z,2.60
2019-05-17T20:18:03.005Z,2.53
2019-05-17T20:20:31.812Z,5.10
2019-05-17T20:23:00.670Z,2.58
2019-05-17T20:25:29.512Z,2.37
2019-05-17T20:27:58.369Z,3.72
2019-05-17T20:30:27.206Z,2.77
2019-05-17T20:32:56.057Z,2.50
2019-05-17T20:35:25.646Z,2.40
2019-05-17T20:37:54.487Z,2.30
2019-05-17T20:40:24.064Z,2.78
2019-05-17T20:42:52.932Z,3.60
2019-05-17T20:45:32.584Z,3.77
2019-05-17T20:47:51.296Z,2.40
2019-05-17T20:50:20.139Z,3.27
2019-05-17T20:52:48.989Z,2.57
2019-05-17T20:55:17.822Z,2.93
2019-05-17T20:57:46.697Z,2.57
2019-05-17T21:00:15.546Z,3.97
2019-05-17T21:02:44.966Z,3.97
2019-05-17T21:05:13.815Z,3.27
2019-05-17T21:07:43.431Z,2.70
2019-05-17T21:10:13.017Z,3.28
2019-05-17T21:12:41.908Z,3.85
2019-05-17T21:15:10.759Z,2.60
2019-05-17T21:17:39.677Z,2.70
2019-05-17T21:20:08.501Z,2.60
2019-05-17T21:22:38.098Z,3.13
2019-05-17T21:25:07.688Z,3.43
2019-05-17T21:27:36.562Z,2.30
2019-05-17T21:30:05.393Z,2.75
2019-05-17T21:32:34.978Z,3.20
2019-05-17T21:35:03.870Z,3.13
2019-05-17T21:37:32.700Z,2.40
2019-05-17T21:42:40.511Z,2.80
2019-05-17T21:45:09.320Z,2.23
2019-05-17T21:47:38.158Z,2.00
2019-05-17T21:50:07.770Z,3.70
2019-05-17T21:52:37.379Z,2.65
2019-05-17T21:55:06.970Z,2.77
2019-05-17T21:57:35.823Z,1.83
2019-05-17T22:00:06.632Z,3.17
2019-05-17T22:02:35.474Z,2.90
2019-05-17T22:05:04.299Z,2.93
2019-05-17T22:07:33.134Z,2.28
2019-05-17T22:10:01.958Z,2.10
2019-05-17T22:12:31.524Z,2.63
2019-05-17T22:15:00.353Z,2.67
2019-05-17T22:17:29.948Z,2.13
2019-05-17T22:19:58.801Z,1.80
2019-05-17T22:22:27.634Z,2.20
2019-05-17T22:24:57.220Z,2.73
2019-05-17T22:27:26.058Z,2.37
2019-05-17T22:29:54.899Z,3.20
2019-05-17T22:32:23.728Z,2.33
2019-05-17T22:34:52.595Z,3.40
2019-05-17T22:37:21.483Z,4.37
2019-05-17T22:39:50.896Z,3.40
2019-05-17T22:42:19.754Z,2.37
2019-05-17T22:44:48.592Z,2.28
2019-05-17T22:47:17.437Z,4.07
2019-05-17T22:49:46.299Z,2.50
2019-05-17T22:52:15.116Z,2.60
2019-05-17T22:54:43.952Z,2.23
2019-05-17T22:57:12.792Z,2.87
2019-05-17T22:59:41.634Z,2.17
2019-05-17T23:02:10.463Z,3.27
2019-05-17T23:04:39.305Z,5.33
2019-05-17T23:07:08.137Z,2.67
2019-05-17T23:09:36.964Z,2.90
2019-05-17T23:12:06.542Z,3.50
2019-05-17T23:14:35.374Z,2.50
2019-05-17T23:17:04.207Z,2.37
2019-05-17T23:19:33.050Z,2.33
2019-05-17T23:22:01.903Z,3.03
2019-05-17T23:24:30.759Z,2.30
2019-05-17T23:26:59.605Z,2.55
2019-05-17T23:29:28.448Z,3.30
2019-05-17T23:31:57.284Z,2.58
2019-05-17T23:34:26.867Z,2.20
2019-05-17T23:36:55.707Z,2.45
2019-05-17T23:39:24.563Z,2.37
2019-05-17T23:41:53.386Z,2.90
2019-05-17T23:44:22.227Z,2.27
2019-05-17T23:47:04.770Z,2.60
2019-05-17T23:49:19.947Z,2.50
2019-05-17T23:51:48.805Z,3.50
2019-05-17T23:54:17.679Z,3.10
2019-05-17T23:56:46.507Z,2.30
2019-05-17T23:59:15.366Z,2.87
